sensor_id;sensor_type;location;lat;lon;timestamp;temperature;humidity
9209;DHT22;4639;48.862;9.188;2022-12-07T00:01:16;4.60;99.90
9209;DHT22;4639;48.862;9.188;2022-12-07T00:03:43;4.60;99.90
9209;DHT22;4639;48.862;9.188;2022-12-07T00:06:11;4.60;99.90
9209;DHT22;4639;48.862;9.188;2022-12-07T00:08:37;4.60;99.90
9209;DHT22;4639;48.862;9.188;2022-12-07T00:13:36;4.60;99.90
9209;DHT22;4639;48.862;9.188;2022-12-07T00:16:07;4.90;99.90
9209;DHT22;4639;48.862;9.188;2022-12-07T00:18:33;4.60;99.90
9209;DHT22;4639;48.862;9.188;2022-12-07T00:21:03;4.60;99.90
9209;DHT22;4639;48.862;9.188;2022-12-07T00:23:29;4.70;99.90
9209;DHT22;4639;48.862;9.188;2022-12-07T00:25:56;4.70;99.90
9209;DHT22;4639;48.862;9.188;2022-12-07T00:28:21;4.70;99.90
9209;DHT22;4639;48.862;9.188;2022-12-07T00:30:47;4.70;99.90
9209;DHT22;4639;48.862;9.188;2022-12-07T00:33:13;4.70;99.90
9209;DHT22;4639;48.862;9.188;2022-12-07T00:35:38;4.70;99.90
9209;DHT22;4639;48.862;9.188;2022-12-07T00:38:04;4.70;99.90
9209;DHT22;4639;48.862;9.188;2022-12-07T00:40:29;4.70;99.90
9209;DHT22;4639;48.862;9.188;2022-12-07T00:42:55;4.50;99.90
9209;DHT22;4639;48.862;9.188;2022-12-07T00:45:20;4.50;99.90
9209;DHT22;4639;48.862;9.188;2022-12-07T00:47:46;4.50;99.90
9209;DHT22;4639;48.862;9.188;2022-12-07T00:50:11;4.40;99.90
9209;DHT22;4639;48.862;9.188;2022-12-07T00:52:37;4.30;99.90
9209;DHT22;4639;48.862;9.188;2022-12-07T00:55:03;4.40;99.90
9209;DHT22;4639;48.862;9.188;2022-12-07T00:57:30;4.40;99.90
9209;DHT22;4639;48.862;9.188;2022-12-07T00:59:56;4.50;99.90
9209;DHT22;4639;48.862;9.188;2022-12-07T01:02:23;4.50;99.90
9209;DHT22;4639;48.862;9.188;2022-12-07T01:04:49;4.50;99.90
9209;DHT22;4639;48.862;9.188;2022-12-07T01:07:14;4.50;99.90
9209;DHT22;4639;48.862;9.188;2022-12-07T01:09:40;4.50;99.90
9209;DHT22;4639;48.862;9.188;2022-12-07T01:12:06;4.20;99.90
9209;DHT22;4639;48.862;9.188;2022-12-07T01:14:31;4.20;99.90
9209;DHT22;4639;48.862;9.188;2022-12-07T01:16:57;4.20;99.90
9209;DHT22;4639;48.862;9.188;2022-12-07T01:19:22;4.20;99.90
9209;DHT22;4639;48.862;9.188;2022-12-07T01:21:48;4.10;99.90
9209;DHT22;4639;48.862;9.188;2022-12-07T01:24:13;4.20;99.90
9209;DHT22;4639;48.862;9.188;2022-12-07T01:26:39;4.10;99.90
9209;DHT22;4639;48.862;9.188;2022-12-07T01:29:05;4.20;99.90
9209;DHT22;4639;48.862;9.188;2022-12-07T01:31:30;4.20;99.90
9209;DHT22;4639;48.862;9.188;2022-12-07T01:33:57;4.20;99.90
9209;DHT22;4639;48.862;9.188;2022-12-07T01:36:26;4.10;99.90
9209;DHT22;4639;48.862;9.188;2022-12-07T01:38:56;4.10;99.90
9209;DHT22;4639;48.862;9.188;2022-12-07T01:41:23;4.30;99.90
9209;DHT22;4639;48.862;9.188;2022-12-07T01:46:36;4.20;99.90
9209;DHT22;4639;48.862;9.188;2022-12-07T01:49:04;4.20;99.90
9209;DHT22;4639;48.862;9.188;2022-12-07T01:51:31;4.20;99.90
9209;DHT22;4639;48.862;9.188;2022-12-07T01:53:57;4.30;99.90
9209;DHT22;4639;48.862;9.188;2022-12-07T01:56:26;4.40;99.90
9209;DHT22;4639;48.862;9.188;2022-12-07T01:58:53;4.40;99.90
9209;DHT22;4639;48.862;9.188;2022-12-07T02:01:20;4.50;99.90
9209;DHT22;4639;48.862;9.188;2022-12-07T02:03:46;4.40;99.90
9209;DHT22;4639;48.862;9.188;2022-12-07T02:06:15;4.30;99.90
9209;DHT22;4639;48.862;9.188;2022-12-07T02:08:42;4.30;99.90
9209;DHT22;4639;48.862;9.188;2022-12-07T02:11:09;4.30;99.90
9209;DHT22;4639;48.862;9.188;2022-12-07T02:13:36;4.40;99.90
9209;DHT22;4639;48.862;9.188;2022-12-07T02:21:31;4.30;99.90
9209;DHT22;4639;48.862;9.188;2022-12-07T02:29:29;4.10;99.90
9209;DHT22;4639;48.862;9.188;2022-12-07T02:34:44;4.10;99.90
9209;DHT22;4639;48.862;9.188;2022-12-07T02:37:27;4.10;99.90
9209;DHT22;4639;48.862;9.188;2022-12-07T02:42:33;4.10;99.90
9209;DHT22;4639;48.862;9.188;2022-12-07T02:45:01;4.20;99.90
9209;DHT22;4639;48.862;9.188;2022-12-07T02:47:29;4.20;99.90
9209;DHT22;4639;48.862;9.188;2022-12-07T02:49:56;4.10;99.90
9209;DHT22;4639;48.862;9.188;2022-12-07T02:52:22;4.20;99.90
9209;DHT22;4639;48.862;9.188;2022-12-07T02:54:47;4.10;99.90
9209;DHT22;4639;48.862;9.188;2022-12-07T03:00:17;4.10;99.90
9209;DHT22;4639;48.862;9.188;2022-12-07T03:10:55;4.20;99.90
9209;DHT22;4639;48.862;9.188;2022-12-07T03:18:59;4.20;99.90
9209;DHT22;4639;48.862;9.188;2022-12-07T03:21:31;4.10;99.90
9209;DHT22;4639;48.862;9.188;2022-12-07T03:24:00;4.10;99.90
9209;DHT22;4639;48.862;9.188;2022-12-07T03:26:32;4.00;99.90
9209;DHT22;4639;48.862;9.188;2022-12-07T03:29:06;4.10;99.90
9209;DHT22;4639;48.862;9.188;2022-12-07T03:31:42;4.30;99.90
9209;DHT22;4639;48.862;9.188;2022-12-07T03:34:30;4.20;99.90
9209;DHT22;4639;48.862;9.188;2022-12-07T03:36:59;4.20;99.90
9209;DHT22;4639;48.862;9.188;2022-12-07T03:39:36;4.30;99.90
9209;DHT22;4639;48.862;9.188;2022-12-07T03:42:04;4.30;99.90
9209;DHT22;4639;48.862;9.188;2022-12-07T03:44:31;4.30;99.90
9209;DHT22;4639;48.862;9.188;2022-12-07T03:47:16;4.40;99.90
9209;DHT22;4639;48.862;9.188;2022-12-07T03:49:50;4.40;99.90
9209;DHT22;4639;48.862;9.188;2022-12-07T03:55:29;4.40;99.90
9209;DHT22;4639;48.862;9.188;2022-12-07T03:58:00;4.40;99.90
9209;DHT22;4639;48.862;9.188;2022-12-07T04:00:27;4.40;99.90
9209;DHT22;4639;48.862;9.188;2022-12-07T04:02:54;4.40;99.90
9209;DHT22;4639;48.862;9.188;2022-12-07T04:05:20;4.40;99.90
9209;DHT22;4639;48.862;9.188;2022-12-07T04:07:49;4.40;99.90
9209;DHT22;4639;48.862;9.188;2022-12-07T04:10:14;4.30;99.90
9209;DHT22;4639;48.862;9.188;2022-12-07T04:12:40;4.30;99.90
9209;DHT22;4639;48.862;9.188;2022-12-07T04:15:06;4.20;99.90
9209;DHT22;4639;48.862;9.188;2022-12-07T04:17:32;4.00;99.90
9209;DHT22;4639;48.862;9.188;2022-12-07T04:19:58;3.90;99.90
9209;DHT22;4639;48.862;9.188;2022-12-07T04:22:23;3.80;99.90
9209;DHT22;4639;48.862;9.188;2022-12-07T04:24:49;3.90;99.90
9209;DHT22;4639;48.862;9.188;2022-12-07T04:27:15;3.90;99.90
9209;DHT22;4639;48.862;9.188;2022-12-07T04:29:40;3.90;99.90
9209;DHT22;4639;48.862;9.188;2022-12-07T04:32:06;3.80;99.90
9209;DHT22;4639;48.862;9.188;2022-12-07T04:34:31;3.90;99.90
9209;DHT22;4639;48.862;9.188;2022-12-07T04:36:57;3.90;99.90
9209;DHT22;4639;48.862;9.188;2022-12-07T04:39:25;3.90;99.90
9209;DHT22;4639;48.862;9.188;2022-12-07T04:41:51;3.90;99.90
9209;DHT22;4639;48.862;9.188;2022-12-07T04:44:17;3.90;99.90
9209;DHT22;4639;48.862;9.188;2022-12-07T04:46:43;3.90;99.90
9209;DHT22;4639;48.862;9.188;2022-12-07T04:49:09;3.90;99.90
9209;DHT22;4639;48.862;9.188;2022-12-07T04:51:35;3.90;99.90
9209;DHT22;4639;48.862;9.188;2022-12-07T04:54:01;4.10;99.90
9209;DHT22;4639;48.862;9.188;2022-12-07T04:56:27;4.20;99.90
9209;DHT22;4639;48.862;9.188;2022-12-07T04:58:53;4.20;99.90
9209;DHT22;4639;48.862;9.188;2022-12-07T05:01:21;4.30;99.90
9209;DHT22;4639;48.862;9.188;2022-12-07T05:03:46;4.40;99.90
9209;DHT22;4639;48.862;9.188;2022-12-07T05:06:12;4.20;99.90
9209;DHT22;4639;48.862;9.188;2022-12-07T05:08:38;4.20;99.90
9209;DHT22;4639;48.862;9.188;2022-12-07T05:11:06;4.20;99.90
9209;DHT22;4639;48.862;9.188;2022-12-07T05:13:32;4.20;99.90
9209;DHT22;4639;48.862;9.188;2022-12-07T05:15:58;4.10;99.90
9209;DHT22;4639;48.862;9.188;2022-12-07T05:18:24;4.20;99.90
9209;DHT22;4639;48.862;9.188;2022-12-07T05:20:51;4.10;99.90
9209;DHT22;4639;48.862;9.188;2022-12-07T05:23:17;4.00;99.90
9209;DHT22;4639;48.862;9.188;2022-12-07T05:25:43;3.90;99.90
9209;DHT22;4639;48.862;9.188;2022-12-07T05:28:09;3.90;99.90
9209;DHT22;4639;48.862;9.188;2022-12-07T05:30:35;3.90;99.90
9209;DHT22;4639;48.862;9.188;2022-12-07T05:33:01;3.90;99.90
9209;DHT22;4639;48.862;9.188;2022-12-07T05:35:26;3.90;99.90
9209;DHT22;4639;48.862;9.188;2022-12-07T05:37:52;3.90;99.90
9209;DHT22;4639;48.862;9.188;2022-12-07T05:40:17;4.00;99.90
9209;DHT22;4639;48.862;9.188;2022-12-07T05:42:44;3.90;99.90
9209;DHT22;4639;48.862;9.188;2022-12-07T05:45:10;4.00;99.90
9209;DHT22;4639;48.862;9.188;2022-12-07T05:47:36;3.90;99.90
9209;DHT22;4639;48.862;9.188;2022-12-07T05:50:03;4.00;99.90
9209;DHT22;4639;48.862;9.188;2022-12-07T05:52:29;4.00;99.90
9209;DHT22;4639;48.862;9.188;2022-12-07T05:54:54;3.90;99.90
9209;DHT22;4639;48.862;9.188;2022-12-07T05:57:20;3.80;99.90
9209;DHT22;4639;48.862;9.188;2022-12-07T05:59:45;3.60;99.90
9209;DHT22;4639;48.862;9.188;2022-12-07T06:02:13;3.70;99.90
9209;DHT22;4639;48.862;9.188;2022-12-07T06:04:46;3.90;99.90
9209;DHT22;4639;48.862;9.188;2022-12-07T06:07:14;3.90;99.90
9209;DHT22;4639;48.862;9.188;2022-12-07T06:09:39;4.10;99.90
9209;DHT22;4639;48.862;9.188;2022-12-07T06:12:14;4.00;99.90
9209;DHT22;4639;48.862;9.188;2022-12-07T06:15:14;4.00;99.90
9209;DHT22;4639;48.862;9.188;2022-12-07T06:17:39;3.90;99.90
9209;DHT22;4639;48.862;9.188;2022-12-07T06:20:05;3.90;99.90
9209;DHT22;4639;48.862;9.188;2022-12-07T06:22:31;3.90;99.90
9209;DHT22;4639;48.862;9.188;2022-12-07T06:24:57;3.90;99.90
9209;DHT22;4639;48.862;9.188;2022-12-07T06:27:22;4.00;99.90
9209;DHT22;4639;48.862;9.188;2022-12-07T06:29:48;3.90;99.90
9209;DHT22;4639;48.862;9.188;2022-12-07T06:32:13;3.90;99.90
9209;DHT22;4639;48.862;9.188;2022-12-07T06:34:39;3.80;99.90
9209;DHT22;4639;48.862;9.188;2022-12-07T06:37:05;3.60;99.90
9209;DHT22;4639;48.862;9.188;2022-12-07T06:39:30;3.50;99.90
9209;DHT22;4639;48.862;9.188;2022-12-07T06:41:57;3.60;99.90
9209;DHT22;4639;48.862;9.188;2022-12-07T06:44:23;3.60;99.90
9209;DHT22;4639;48.862;9.188;2022-12-07T06:46:49;3.70;99.90
9209;DHT22;4639;48.862;9.188;2022-12-07T06:49:15;3.80;99.90
9209;DHT22;4639;48.862;9.188;2022-12-07T06:51:41;3.80;99.90
9209;DHT22;4639;48.862;9.188;2022-12-07T06:54:09;3.90;99.90
9209;DHT22;4639;48.862;9.188;2022-12-07T06:56:34;3.90;99.90
9209;DHT22;4639;48.862;9.188;2022-12-07T06:59:00;3.90;99.90
9209;DHT22;4639;48.862;9.188;2022-12-07T07:01:26;3.90;99.90
9209;DHT22;4639;48.862;9.188;2022-12-07T07:03:51;3.70;99.90
9209;DHT22;4639;48.862;9.188;2022-12-07T07:06:17;3.70;99.90
9209;DHT22;4639;48.862;9.188;2022-12-07T07:08:43;3.70;99.90
9209;DHT22;4639;48.862;9.188;2022-12-07T07:11:09;3.70;99.90
9209;DHT22;4639;48.862;9.188;2022-12-07T07:13:35;3.70;99.90
9209;DHT22;4639;48.862;9.188;2022-12-07T07:16:00;3.70;99.90
9209;DHT22;4639;48.862;9.188;2022-12-07T07:18:27;3.70;99.90
9209;DHT22;4639;48.862;9.188;2022-12-07T07:20:53;3.70;99.90
9209;DHT22;4639;48.862;9.188;2022-12-07T07:23:20;3.80;99.90
9209;DHT22;4639;48.862;9.188;2022-12-07T07:25:46;3.70;99.90
9209;DHT22;4639;48.862;9.188;2022-12-07T07:28:12;3.80;99.90
9209;DHT22;4639;48.862;9.188;2022-12-07T07:30:37;3.90;99.90
9209;DHT22;4639;48.862;9.188;2022-12-07T07:33:04;3.90;99.90
9209;DHT22;4639;48.862;9.188;2022-12-07T07:35:31;3.90;99.90
9209;DHT22;4639;48.862;9.188;2022-12-07T07:37:57;3.90;99.90
9209;DHT22;4639;48.862;9.188;2022-12-07T07:40:22;4.00;99.90
9209;DHT22;4639;48.862;9.188;2022-12-07T07:42:49;4.10;99.90
9209;DHT22;4639;48.862;9.188;2022-12-07T07:45:15;4.20;99.90
9209;DHT22;4639;48.862;9.188;2022-12-07T07:47:41;4.10;99.90
9209;DHT22;4639;48.862;9.188;2022-12-07T07:50:07;4.10;99.90
9209;DHT22;4639;48.862;9.188;2022-12-07T07:52:32;4.10;99.90
9209;DHT22;4639;48.862;9.188;2022-12-07T07:54:58;4.10;99.90
9209;DHT22;4639;48.862;9.188;2022-12-07T07:57:23;4.20;99.90
9209;DHT22;4639;48.862;9.188;2022-12-07T07:59:49;4.20;99.90
9209;DHT22;4639;48.862;9.188;2022-12-07T08:02:17;4.30;99.90
9209;DHT22;4639;48.862;9.188;2022-12-07T08:04:43;4.20;99.90
9209;DHT22;4639;48.862;9.188;2022-12-07T08:07:09;4.20;99.90
9209;DHT22;4639;48.862;9.188;2022-12-07T08:09:34;4.10;99.90
9209;DHT22;4639;48.862;9.188;2022-12-07T08:12:00;4.10;99.90
9209;DHT22;4639;48.862;9.188;2022-12-07T08:14:26;4.10;99.90
9209;DHT22;4639;48.862;9.188;2022-12-07T08:16:53;4.20;99.90
9209;DHT22;4639;48.862;9.188;2022-12-07T08:19:18;4.20;99.90
9209;DHT22;4639;48.862;9.188;2022-12-07T08:21:44;4.20;99.90
9209;DHT22;4639;48.862;9.188;2022-12-07T08:24:09;4.20;99.90
9209;DHT22;4639;48.862;9.188;2022-12-07T08:26:35;4.30;99.90
9209;DHT22;4639;48.862;9.188;2022-12-07T08:29:01;4.30;99.90
9209;DHT22;4639;48.862;9.188;2022-12-07T08:31:27;4.40;99.90
9209;DHT22;4639;48.862;9.188;2022-12-07T08:33:53;4.50;99.90
9209;DHT22;4639;48.862;9.188;2022-12-07T08:36:19;4.50;99.90
9209;DHT22;4639;48.862;9.188;2022-12-07T08:38:45;4.50;99.90
9209;DHT22;4639;48.862;9.188;2022-12-07T08:41:11;4.50;99.90
9209;DHT22;4639;48.862;9.188;2022-12-07T08:43:36;4.60;99.90
9209;DHT22;4639;48.862;9.188;2022-12-07T08:46:06;4.70;99.90
9209;DHT22;4639;48.862;9.188;2022-12-07T08:48:34;4.80;99.90
9209;DHT22;4639;48.862;9.188;2022-12-07T08:51:02;4.80;99.90
9209;DHT22;4639;48.862;9.188;2022-12-07T08:53:28;4.70;99.90
9209;DHT22;4639;48.862;9.188;2022-12-07T08:55:56;4.70;99.90
9209;DHT22;4639;48.862;9.188;2022-12-07T08:58:22;4.70;99.90
9209;DHT22;4639;48.862;9.188;2022-12-07T09:00:47;4.70;99.90
9209;DHT22;4639;48.862;9.188;2022-12-07T09:03:13;4.60;99.90
9209;DHT22;4639;48.862;9.188;2022-12-07T09:05:39;4.70;99.90
9209;DHT22;4639;48.862;9.188;2022-12-07T09:08:04;4.70;99.90
9209;DHT22;4639;48.862;9.188;2022-12-07T09:10:30;4.80;99.90
9209;DHT22;4639;48.862;9.188;2022-12-07T09:12:57;4.90;99.90
9209;DHT22;4639;48.862;9.188;2022-12-07T09:15:29;5.10;99.90
9209;DHT22;4639;48.862;9.188;2022-12-07T09:17:55;5.10;99.90
9209;DHT22;4639;48.862;9.188;2022-12-07T09:20:21;5.20;99.90
9209;DHT22;4639;48.862;9.188;2022-12-07T09:22:47;5.10;99.90
9209;DHT22;4639;48.862;9.188;2022-12-07T09:25:12;5.20;99.90
9209;DHT22;4639;48.862;9.188;2022-12-07T09:27:38;5.20;99.90
9209;DHT22;4639;48.862;9.188;2022-12-07T09:30:04;5.20;99.90
9209;DHT22;4639;48.862;9.188;2022-12-07T09:32:30;5.30;99.90
9209;DHT22;4639;48.862;9.188;2022-12-07T09:34:56;5.40;99.90
9209;DHT22;4639;48.862;9.188;2022-12-07T09:37:22;5.50;99.90
9209;DHT22;4639;48.862;9.188;2022-12-07T09:39:47;5.50;99.90
9209;DHT22;4639;48.862;9.188;2022-12-07T09:42:38;5.50;99.90
9209;DHT22;4639;48.862;9.188;2022-12-07T09:45:24;5.50;99.90
9209;DHT22;4639;48.862;9.188;2022-12-07T09:47:50;5.50;99.90
9209;DHT22;4639;48.862;9.188;2022-12-07T09:50:20;5.40;99.90
9209;DHT22;4639;48.862;9.188;2022-12-07T09:52:47;5.30;99.90
9209;DHT22;4639;48.862;9.188;2022-12-07T09:55:15;5.20;99.90
9209;DHT22;4639;48.862;9.188;2022-12-07T09:57:42;5.20;99.90
9209;DHT22;4639;48.862;9.188;2022-12-07T10:00:17;5.30;99.90
9209;DHT22;4639;48.862;9.188;2022-12-07T10:02:57;5.30;99.90
9209;DHT22;4639;48.862;9.188;2022-12-07T10:05:38;5.40;99.90
9209;DHT22;4639;48.862;9.188;2022-12-07T10:08:09;5.20;99.90
9209;DHT22;4639;48.862;9.188;2022-12-07T10:10:36;5.20;99.90
9209;DHT22;4639;48.862;9.188;2022-12-07T10:13:18;5.20;99.90
9209;DHT22;4639;48.862;9.188;2022-12-07T10:15:52;5.40;99.90
9209;DHT22;4639;48.862;9.188;2022-12-07T10:18:31;5.50;99.90
9209;DHT22;4639;48.862;9.188;2022-12-07T10:21:11;5.50;99.90
9209;DHT22;4639;48.862;9.188;2022-12-07T10:23:43;5.60;99.90
9209;DHT22;4639;48.862;9.188;2022-12-07T10:29:12;5.60;99.90
9209;DHT22;4639;48.862;9.188;2022-12-07T10:31:39;5.60;99.90
9209;DHT22;4639;48.862;9.188;2022-12-07T10:34:26;5.60;99.90
9209;DHT22;4639;48.862;9.188;2022-12-07T10:36:53;5.70;99.90
9209;DHT22;4639;48.862;9.188;2022-12-07T10:39:23;5.70;99.90
9209;DHT22;4639;48.862;9.188;2022-12-07T10:41:57;5.80;99.90
9209;DHT22;4639;48.862;9.188;2022-12-07T10:44:25;5.90;99.90
9209;DHT22;4639;48.862;9.188;2022-12-07T10:54:40;5.60;99.90
9209;DHT22;4639;48.862;9.188;2022-12-07T11:00:04;5.60;99.90
9209;DHT22;4639;48.862;9.188;2022-12-07T11:17:05;5.50;99.90
9209;DHT22;4639;48.862;9.188;2022-12-07T11:20:02;5.50;99.90
9209;DHT22;4639;48.862;9.188;2022-12-07T11:22:40;5.50;99.90
9209;DHT22;4639;48.862;9.188;2022-12-07T11:25:43;5.50;99.90
9209;DHT22;4639;48.862;9.188;2022-12-07T11:31:24;5.30;99.90
9209;DHT22;4639;48.862;9.188;2022-12-07T11:34:09;5.30;99.90
9209;DHT22;4639;48.862;9.188;2022-12-07T11:36:43;5.20;99.90
9209;DHT22;4639;48.862;9.188;2022-12-07T11:39:36;5.40;99.90
9209;DHT22;4639;48.862;9.188;2022-12-07T11:42:12;5.50;99.90
9209;DHT22;4639;48.862;9.188;2022-12-07T11:45:14;5.50;99.90
9209;DHT22;4639;48.862;9.188;2022-12-07T11:47:59;5.40;99.90
9209;DHT22;4639;48.862;9.188;2022-12-07T11:51:11;5.30;99.90
9209;DHT22;4639;48.862;9.188;2022-12-07T11:53:40;5.20;99.90
9209;DHT22;4639;48.862;9.188;2022-12-07T11:56:14;5.30;99.90
9209;DHT22;4639;48.862;9.188;2022-12-07T11:58:56;5.40;99.90
9209;DHT22;4639;48.862;9.188;2022-12-07T12:01:26;5.40;99.90
9209;DHT22;4639;48.862;9.188;2022-12-07T12:04:00;5.30;99.90
9209;DHT22;4639;48.862;9.188;2022-12-07T12:06:26;5.30;99.90
9209;DHT22;4639;48.862;9.188;2022-12-07T12:09:04;5.30;99.90
9209;DHT22;4639;48.862;9.188;2022-12-07T12:20:30;5.40;99.90
9209;DHT22;4639;48.862;9.188;2022-12-07T12:25:50;5.50;99.90
9209;DHT22;4639;48.862;9.188;2022-12-07T12:28:27;5.50;99.90
9209;DHT22;4639;48.862;9.188;2022-12-07T12:33:55;5.30;99.90
9209;DHT22;4639;48.862;9.188;2022-12-07T12:39:18;5.30;99.90
9209;DHT22;4639;48.862;9.188;2022-12-07T12:51:54;5.30;99.90
9209;DHT22;4639;48.862;9.188;2022-12-07T12:54:23;5.20;99.90
9209;DHT22;4639;48.862;9.188;2022-12-07T12:57:07;5.20;99.90
9209;DHT22;4639;48.862;9.188;2022-12-07T12:59:36;5.30;99.90
9209;DHT22;4639;48.862;9.188;2022-12-07T13:15:52;5.30;99.90
9209;DHT22;4639;48.862;9.188;2022-12-07T13:34:37;5.40;99.90
9209;DHT22;4639;48.862;9.188;2022-12-07T13:40:18;5.40;99.90
9209;DHT22;4639;48.862;9.188;2022-12-07T13:42:45;5.40;99.90
9209;DHT22;4639;48.862;9.188;2022-12-07T13:45:26;5.40;99.90
9209;DHT22;4639;48.862;9.188;2022-12-07T13:48:24;5.40;99.90
9209;DHT22;4639;48.862;9.188;2022-12-07T13:50:54;5.50;99.90
9209;DHT22;4639;48.862;9.188;2022-12-07T13:53:21;5.60;99.90
9209;DHT22;4639;48.862;9.188;2022-12-07T13:55:47;5.50;99.90
9209;DHT22;4639;48.862;9.188;2022-12-07T13:58:13;5.50;99.90
9209;DHT22;4639;48.862;9.188;2022-12-07T14:00:40;5.50;99.90
9209;DHT22;4639;48.862;9.188;2022-12-07T14:05:40;5.60;99.90
9209;DHT22;4639;48.862;9.188;2022-12-07T14:08:21;5.60;99.90
9209;DHT22;4639;48.862;9.188;2022-12-07T14:13:32;5.60;99.90
9209;DHT22;4639;48.862;9.188;2022-12-07T14:16:00;5.80;99.90
9209;DHT22;4639;48.862;9.188;2022-12-07T14:18:37;5.70;99.90
9209;DHT22;4639;48.862;9.188;2022-12-07T14:21:21;5.60;99.90
9209;DHT22;4639;48.862;9.188;2022-12-07T14:24:18;5.70;99.90
9209;DHT22;4639;48.862;9.188;2022-12-07T14:26:45;5.60;99.90
9209;DHT22;4639;48.862;9.188;2022-12-07T14:31:56;5.70;99.90
9209;DHT22;4639;48.862;9.188;2022-12-07T14:34:23;5.80;99.90
9209;DHT22;4639;48.862;9.188;2022-12-07T14:36:49;5.80;99.90
9209;DHT22;4639;48.862;9.188;2022-12-07T14:39:15;5.70;99.90
9209;DHT22;4639;48.862;9.188;2022-12-07T14:41:41;5.70;99.90
9209;DHT22;4639;48.862;9.188;2022-12-07T14:44:16;5.80;99.90
9209;DHT22;4639;48.862;9.188;2022-12-07T14:46:42;5.70;99.90
9209;DHT22;4639;48.862;9.188;2022-12-07T14:49:07;5.70;99.90
9209;DHT22;4639;48.862;9.188;2022-12-07T14:51:33;5.70;99.90
9209;DHT22;4639;48.862;9.188;2022-12-07T14:54:00;5.60;99.90
9209;DHT22;4639;48.862;9.188;2022-12-07T14:56:26;5.60;99.90
9209;DHT22;4639;48.862;9.188;2022-12-07T14:58:53;5.60;99.90
9209;DHT22;4639;48.862;9.188;2022-12-07T15:01:18;5.50;99.90
9209;DHT22;4639;48.862;9.188;2022-12-07T15:03:44;5.50;99.90
9209;DHT22;4639;48.862;9.188;2022-12-07T15:06:14;5.40;99.90
9209;DHT22;4639;48.862;9.188;2022-12-07T15:08:40;5.30;99.90
9209;DHT22;4639;48.862;9.188;2022-12-07T15:11:06;5.10;99.90
9209;DHT22;4639;48.862;9.188;2022-12-07T15:13:31;5.00;99.90
9209;DHT22;4639;48.862;9.188;2022-12-07T15:16:19;5.00;99.90
9209;DHT22;4639;48.862;9.188;2022-12-07T15:18:45;5.10;99.90
9209;DHT22;4639;48.862;9.188;2022-12-07T15:21:15;5.00;99.90
9209;DHT22;4639;48.862;9.188;2022-12-07T15:23:40;5.00;99.90
9209;DHT22;4639;48.862;9.188;2022-12-07T15:26:06;5.00;99.90
9209;DHT22;4639;48.862;9.188;2022-12-07T15:28:33;4.90;99.90
9209;DHT22;4639;48.862;9.188;2022-12-07T15:30:59;5.00;99.90
9209;DHT22;4639;48.862;9.188;2022-12-07T15:33:24;5.00;99.90
9209;DHT22;4639;48.862;9.188;2022-12-07T15:35:50;4.90;99.90
9209;DHT22;4639;48.862;9.188;2022-12-07T15:38:16;4.80;99.90
9209;DHT22;4639;48.862;9.188;2022-12-07T15:40:41;4.80;99.90
9209;DHT22;4639;48.862;9.188;2022-12-07T15:43:09;4.80;99.90
9209;DHT22;4639;48.862;9.188;2022-12-07T15:45:55;4.80;99.90
9209;DHT22;4639;48.862;9.188;2022-12-07T15:48:20;4.90;99.90
9209;DHT22;4639;48.862;9.188;2022-12-07T15:50:46;4.80;99.90
9209;DHT22;4639;48.862;9.188;2022-12-07T15:53:16;4.70;99.90
9209;DHT22;4639;48.862;9.188;2022-12-07T15:55:48;4.70;99.90
9209;DHT22;4639;48.862;9.188;2022-12-07T15:58:14;4.80;99.90
9209;DHT22;4639;48.862;9.188;2022-12-07T16:00:39;4.70;99.90
9209;DHT22;4639;48.862;9.188;2022-12-07T16:03:05;4.70;99.90
9209;DHT22;4639;48.862;9.188;2022-12-07T16:05:30;4.70;99.90
9209;DHT22;4639;48.862;9.188;2022-12-07T16:07:56;4.70;99.90
9209;DHT22;4639;48.862;9.188;2022-12-07T16:10:21;4.70;99.90
9209;DHT22;4639;48.862;9.188;2022-12-07T16:12:47;4.60;99.90
9209;DHT22;4639;48.862;9.188;2022-12-07T16:15:13;4.50;99.90
9209;DHT22;4639;48.862;9.188;2022-12-07T16:17:38;4.40;99.90
9209;DHT22;4639;48.862;9.188;2022-12-07T16:20:04;4.40;99.90
9209;DHT22;4639;48.862;9.188;2022-12-07T16:22:30;4.40;99.90
9209;DHT22;4639;48.862;9.188;2022-12-07T16:24:56;4.40;99.90
9209;DHT22;4639;48.862;9.188;2022-12-07T16:27:22;4.40;99.90
9209;DHT22;4639;48.862;9.188;2022-12-07T16:29:47;4.40;99.90
9209;DHT22;4639;48.862;9.188;2022-12-07T16:32:13;4.50;99.90
9209;DHT22;4639;48.862;9.188;2022-12-07T16:34:39;4.40;99.90
9209;DHT22;4639;48.862;9.188;2022-12-07T16:37:05;4.40;99.90
9209;DHT22;4639;48.862;9.188;2022-12-07T16:42:16;4.40;99.90
9209;DHT22;4639;48.862;9.188;2022-12-07T17:00:17;3.80;99.90
9209;DHT22;4639;48.862;9.188;2022-12-07T17:02:42;3.90;99.90
9209;DHT22;4639;48.862;9.188;2022-12-07T17:05:08;3.90;99.90
9209;DHT22;4639;48.862;9.188;2022-12-07T17:07:33;3.90;99.90
9209;DHT22;4639;48.862;9.188;2022-12-07T17:09:59;3.90;99.90
9209;DHT22;4639;48.862;9.188;2022-12-07T17:12:25;3.90;99.90
9209;DHT22;4639;48.862;9.188;2022-12-07T17:14:51;4.00;99.90
9209;DHT22;4639;48.862;9.188;2022-12-07T17:17:35;3.90;99.90
9209;DHT22;4639;48.862;9.188;2022-12-07T17:20:01;3.90;99.90
9209;DHT22;4639;48.862;9.188;2022-12-07T17:22:26;4.00;99.90
9209;DHT22;4639;48.862;9.188;2022-12-07T17:24:52;4.00;99.90
9209;DHT22;4639;48.862;9.188;2022-12-07T17:27:18;4.10;99.90
9209;DHT22;4639;48.862;9.188;2022-12-07T17:29:43;4.20;99.90
9209;DHT22;4639;48.862;9.188;2022-12-07T17:32:09;4.30;99.90
9209;DHT22;4639;48.862;9.188;2022-12-07T17:34:34;4.20;99.90
9209;DHT22;4639;48.862;9.188;2022-12-07T17:37:02;4.10;99.90
9209;DHT22;4639;48.862;9.188;2022-12-07T17:39:27;4.00;99.90
9209;DHT22;4639;48.862;9.188;2022-12-07T17:41:54;4.00;99.90
9209;DHT22;4639;48.862;9.188;2022-12-07T17:44:51;4.00;99.90
9209;DHT22;4639;48.862;9.188;2022-12-07T17:47:17;4.00;99.90
9209;DHT22;4639;48.862;9.188;2022-12-07T17:49:43;4.10;99.90
9209;DHT22;4639;48.862;9.188;2022-12-07T17:52:11;4.10;99.90
9209;DHT22;4639;48.862;9.188;2022-12-07T17:54:55;4.10;99.90
9209;DHT22;4639;48.862;9.188;2022-12-07T17:57:21;4.20;99.90
9209;DHT22;4639;48.862;9.188;2022-12-07T17:59:47;4.20;99.90
9209;DHT22;4639;48.862;9.188;2022-12-07T18:02:12;4.10;99.90
9209;DHT22;4639;48.862;9.188;2022-12-07T18:04:38;4.10;99.90
9209;DHT22;4639;48.862;9.188;2022-12-07T18:07:06;4.00;99.90
9209;DHT22;4639;48.862;9.188;2022-12-07T18:09:32;4.00;99.90
9209;DHT22;4639;48.862;9.188;2022-12-07T18:11:58;4.10;99.90
9209;DHT22;4639;48.862;9.188;2022-12-07T18:14:23;4.10;99.90
9209;DHT22;4639;48.862;9.188;2022-12-07T18:16:49;4.20;99.90
9209;DHT22;4639;48.862;9.188;2022-12-07T18:19:14;4.20;99.90
9209;DHT22;4639;48.862;9.188;2022-12-07T18:21:42;4.20;99.90
9209;DHT22;4639;48.862;9.188;2022-12-07T18:24:10;4.30;99.90
9209;DHT22;4639;48.862;9.188;2022-12-07T18:26:36;4.30;99.90
9209;DHT22;4639;48.862;9.188;2022-12-07T18:29:03;4.20;99.90
9209;DHT22;4639;48.862;9.188;2022-12-07T18:31:29;4.20;99.90
9209;DHT22;4639;48.862;9.188;2022-12-07T18:33:54;4.10;99.90
9209;DHT22;4639;48.862;9.188;2022-12-07T18:36:21;4.20;99.90
9209;DHT22;4639;48.862;9.188;2022-12-07T18:38:47;4.20;99.90
9209;DHT22;4639;48.862;9.188;2022-12-07T18:41:13;4.10;99.90
9209;DHT22;4639;48.862;9.188;2022-12-07T18:43:40;4.00;99.90
9209;DHT22;4639;48.862;9.188;2022-12-07T18:46:17;4.00;99.90
9209;DHT22;4639;48.862;9.188;2022-12-07T18:48:43;4.00;99.90
9209;DHT22;4639;48.862;9.188;2022-12-07T18:51:11;4.10;99.90
9209;DHT22;4639;48.862;9.188;2022-12-07T18:53:38;4.20;99.90
9209;DHT22;4639;48.862;9.188;2022-12-07T18:58:31;4.20;99.90
9209;DHT22;4639;48.862;9.188;2022-12-07T19:00:57;4.20;99.90
9209;DHT22;4639;48.862;9.188;2022-12-07T19:03:23;4.30;99.90
9209;DHT22;4639;48.862;9.188;2022-12-07T19:05:49;4.30;99.90
9209;DHT22;4639;48.862;9.188;2022-12-07T19:08:14;4.40;99.90